sensor_id;sensor_type;location;lat;lon;timestamp;pressure;altitude;pressure_sealevel;temperature;humidity
15314;BME280;7757;52.626;4.746;2022-12-05T00:00:33;101830.63;;;15.68;56.98
15314;BME280;7757;52.626;4.746;2022-12-05T00:03:04;101826.03;;;15.68;57.89
15314;BME280;7757;52.626;4.746;2022-12-05T00:05:31;101830.44;;;15.69;57.54
15314;BME280;7757;52.626;4.746;2022-12-05T00:07:57;101825.88;;;15.70;57.60
15314;BME280;7757;52.626;4.746;2022-12-05T00:10:24;101826.25;;;15.67;58.21
15314;BME280;7757;52.626;4.746;2022-12-05T00:12:50;101811.94;;;15.66;57.63
15314;BME280;7757;52.626;4.746;2022-12-05T00:15:17;101823.16;;;15.70;57.37
15314;BME280;7757;52.626;4.746;2022-12-05T00:17:43;101819.44;;;15.71;57.70
15314;BME280;7757;52.626;4.746;2022-12-05T00:20:12;101821.31;;;15.70;57.34
15314;BME280;7757;52.626;4.746;2022-12-05T00:22:38;101819.44;;;15.71;57.35
15314;BME280;7757;52.626;4.746;2022-12-05T00:25:06;101821.94;;;15.72;57.86
15314;BME280;7757;52.626;4.746;2022-12-05T00:27:33;101818.63;;;15.70;57.96
15314;BME280;7757;52.626;4.746;2022-12-05T00:30:00;101813.22;;;15.70;57.25
15314;BME280;7757;52.626;4.746;2022-12-05T00:32:27;101823.63;;;15.73;57.52
15314;BME280;7757;52.626;4.746;2022-12-05T00:34:54;101813.63;;;15.74;58.02
15314;BME280;7757;52.626;4.746;2022-12-05T00:37:22;101807.44;;;15.73;57.40
15314;BME280;7757;52.626;4.746;2022-12-05T00:39:49;101807.44;;;15.73;57.57
15314;BME280;7757;52.626;4.746;2022-12-05T00:42:16;101813.06;;;15.78;57.91
15314;BME280;7757;52.626;4.746;2022-12-05T00:44:42;101804.75;;;15.73;57.87
15314;BME280;7757;52.626;4.746;2022-12-05T00:47:09;101796.03;;;15.78;57.28
15314;BME280;7757;52.626;4.746;2022-12-05T00:49:35;101806.38;;;15.74;57.78
15314;BME280;7757;52.626;4.746;2022-12-05T00:52:02;101809.09;;;15.74;57.21
15314;BME280;7757;52.626;4.746;2022-12-05T00:54:30;101809.09;;;15.74;57.75
15314;BME280;7757;52.626;4.746;2022-12-05T00:56:58;101809.94;;;15.75;57.36
15314;BME280;7757;52.626;4.746;2022-12-05T00:59:25;101806.38;;;15.74;57.79
15314;BME280;7757;52.626;4.746;2022-12-05T01:01:51;101812.63;;;15.75;57.73
15314;BME280;7757;52.626;4.746;2022-12-05T01:04:19;101812.44;;;15.76;57.48
15314;BME280;7757;52.626;4.746;2022-12-05T01:06:46;101808.25;;;15.74;57.77
15314;BME280;7757;52.626;4.746;2022-12-05T01:09:15;101809.94;;;15.75;57.65
15314;BME280;7757;52.626;4.746;2022-12-05T01:11:44;101810.75;;;15.75;57.57
15314;BME280;7757;52.626;4.746;2022-12-05T01:14:12;101815.94;;;15.77;56.94
15314;BME280;7757;52.626;4.746;2022-12-05T01:16:43;101821.34;;;15.77;58.00
15314;BME280;7757;52.626;4.746;2022-12-05T01:19:13;101809.94;;;15.75;56.89
15314;BME280;7757;52.626;4.746;2022-12-05T01:21:40;101805.16;;;15.77;58.03
15314;BME280;7757;52.626;4.746;2022-12-05T01:24:08;101811.59;;;15.76;57.36
15314;BME280;7757;52.626;4.746;2022-12-05T01:26:35;101814.31;;;15.76;57.27
15314;BME280;7757;52.626;4.746;2022-12-05T01:29:03;101811.59;;;15.76;57.66
15314;BME280;7757;52.626;4.746;2022-12-05T01:31:31;101817.00;;;15.76;57.10
15314;BME280;7757;52.626;4.746;2022-12-05T01:34:03;101823.41;;;15.75;57.30
15314;BME280;7757;52.626;4.746;2022-12-05T01:36:30;101823.22;;;15.76;57.04
15314;BME280;7757;52.626;4.746;2022-12-05T01:38:58;101823.22;;;15.76;57.82
15314;BME280;7757;52.626;4.746;2022-12-05T01:41:29;101817.19;;;15.74;57.58
15314;BME280;7757;52.626;4.746;2022-12-05T01:43:59;101819.25;;;15.72;57.97
15314;BME280;7757;52.626;4.746;2022-12-05T01:46:29;101831.50;;;15.75;57.26
15314;BME280;7757;52.626;4.746;2022-12-05T01:49:00;101826.94;;;15.75;57.84
15314;BME280;7757;52.626;4.746;2022-12-05T01:51:28;101829.00;;;15.73;57.24
15314;BME280;7757;52.626;4.746;2022-12-05T01:53:55;101825.28;;;15.74;57.89
15314;BME280;7757;52.626;4.746;2022-12-05T01:56:22;101826.31;;;15.73;57.98
15314;BME280;7757;52.626;4.746;2022-12-05T01:58:50;101823.81;;;15.72;57.71
15314;BME280;7757;52.626;4.746;2022-12-05T02:01:18;101826.50;;;15.72;57.54
15314;BME280;7757;52.626;4.746;2022-12-05T02:03:49;101826.50;;;15.72;57.20
15314;BME280;7757;52.626;4.746;2022-12-05T02:06:18;101829.19;;;15.72;57.09
15314;BME280;7757;52.626;4.746;2022-12-05T02:08:46;101821.94;;;15.72;57.45
15314;BME280;7757;52.626;4.746;2022-12-05T02:11:12;101817.78;;;15.70;57.75
15314;BME280;7757;52.626;4.746;2022-12-05T02:13:54;101824.00;;;15.70;57.78
15314;BME280;7757;52.626;4.746;2022-12-05T02:16:32;101815.91;;;15.70;57.73
15314;BME280;7757;52.626;4.746;2022-12-05T02:19:18;101818.63;;;15.70;57.77
15314;BME280;7757;52.626;4.746;2022-12-05T02:22:36;101814.88;;;15.71;57.46
15314;BME280;7757;52.626;4.746;2022-12-05T02:25:27;101808.84;;;15.69;57.59
15314;BME280;7757;52.626;4.746;2022-12-05T02:28:26;101818.63;;;15.70;57.05
15314;BME280;7757;52.626;4.746;2022-12-05T02:31:05;101819.44;;;15.71;58.11
15314;BME280;7757;52.626;4.746;2022-12-05T02:33:36;101827.94;;;15.68;57.48
15314;BME280;7757;52.626;4.746;2022-12-05T02:36:10;101816.09;;;15.69;57.60
15314;BME280;7757;52.626;4.746;2022-12-05T02:38:43;101824.63;;;15.72;57.96
15314;BME280;7757;52.626;4.746;2022-12-05T02:41:15;101822.97;;;15.71;57.90
15314;BME280;7757;52.626;4.746;2022-12-05T02:43:49;101815.09;;;15.70;56.93
15314;BME280;7757;52.626;4.746;2022-12-05T02:46:22;101820.66;;;15.68;57.49
15314;BME280;7757;52.626;4.746;2022-12-05T02:48:53;101819.63;;;15.69;57.37
15314;BME280;7757;52.626;4.746;2022-12-05T02:51:23;101824.00;;;15.70;57.18
15314;BME280;7757;52.626;4.746;2022-12-05T02:53:54;101821.50;;;15.69;57.75
15314;BME280;7757;52.626;4.746;2022-12-05T02:56:23;101822.34;;;15.69;56.99
15314;BME280;7757;52.626;4.746;2022-12-05T02:58:52;101825.88;;;15.70;57.86
15314;BME280;7757;52.626;4.746;2022-12-05T03:01:24;101826.03;;;15.68;57.39
15314;BME280;7757;52.626;4.746;2022-12-05T03:03:53;101828.13;;;15.66;57.41
15314;BME280;7757;52.626;4.746;2022-12-05T03:06:22;101828.56;;;15.70;57.80
15314;BME280;7757;52.626;4.746;2022-12-05T03:08:53;101826.88;;;15.69;58.09
15314;BME280;7757;52.626;4.746;2022-12-05T03:11:21;101826.03;;;15.68;56.98
15314;BME280;7757;52.626;4.746;2022-12-05T03:13:50;101836.66;;;15.70;57.14
15314;BME280;7757;52.626;4.746;2022-12-05T03:16:21;101833.13;;;15.69;58.01
15314;BME280;7757;52.626;4.746;2022-12-05T03:18:50;101833.75;;;15.71;57.71
15314;BME280;7757;52.626;4.746;2022-12-05T03:21:24;101841.84;;;15.71;57.86
15314;BME280;7757;52.626;4.746;2022-12-05T03:23:55;101834.78;;;15.70;56.81
15314;BME280;7757;52.626;4.746;2022-12-05T03:26:35;101840.19;;;15.70;57.30
15314;BME280;7757;52.626;4.746;2022-12-05T03:29:20;101842.88;;;15.70;57.49
15314;BME280;7757;52.626;4.746;2022-12-05T03:31:56;101849.31;;;15.69;57.58
15314;BME280;7757;52.626;4.746;2022-12-05T03:34:32;101852.00;;;15.69;58.02
15314;BME280;7757;52.626;4.746;2022-12-05T03:37:05;101842.22;;;15.68;57.73
15314;BME280;7757;52.626;4.746;2022-12-05T03:39:36;101844.94;;;15.68;57.41
15314;BME280;7757;52.626;4.746;2022-12-05T03:42:09;101849.50;;;15.68;57.10
15314;BME280;7757;52.626;4.746;2022-12-05T03:44:43;101849.09;;;15.71;57.22
15314;BME280;7757;52.626;4.746;2022-12-05T03:47:16;101857.78;;;15.66;57.75
15314;BME280;7757;52.626;4.746;2022-12-05T03:49:46;101857.59;;;15.68;57.72
15314;BME280;7757;52.626;4.746;2022-12-05T03:52:16;101849.50;;;15.68;57.66
15314;BME280;7757;52.626;4.746;2022-12-05T03:54:48;101857.78;;;15.66;57.52
15314;BME280;7757;52.626;4.746;2022-12-05T03:57:20;101859.63;;;15.66;58.03
15314;BME280;7757;52.626;4.746;2022-12-05T03:59:52;101862.16;;;15.67;58.20
15314;BME280;7757;52.626;4.746;2022-12-05T04:02:25;101863.81;;;15.68;57.08
15314;BME280;7757;52.626;4.746;2022-12-05T04:04:58;101859.47;;;15.67;57.05
15314;BME280;7757;52.626;4.746;2022-12-05T04:07:28;101867.56;;;15.67;57.12
15314;BME280;7757;52.626;4.746;2022-12-05T04:10:00;101866.31;;;15.70;56.86
15314;BME280;7757;52.626;4.746;2022-12-05T04:12:30;101860.94;;;15.70;58.12
15314;BME280;7757;52.626;4.746;2022-12-05T04:15:02;101863.81;;;15.68;57.56
15314;BME280;7757;52.626;4.746;2022-12-05T04:17:35;101854.47;;;15.71;58.09
15314;BME280;7757;52.626;4.746;2022-12-05T04:20:09;101858.41;;;15.68;57.90
15314;BME280;7757;52.626;4.746;2022-12-05T04:22:56;101857.19;;;15.71;57.64
15314;BME280;7757;52.626;4.746;2022-12-05T04:25:23;101863.81;;;15.68;57.06
15314;BME280;7757;52.626;4.746;2022-12-05T04:28:13;101864.00;;;15.67;57.93
15314;BME280;7757;52.626;4.746;2022-12-05T04:30:44;101858.41;;;15.68;57.83
15314;BME280;7757;52.626;4.746;2022-12-05T04:33:18;101872.09;;;15.67;57.32
15314;BME280;7757;52.626;4.746;2022-12-05T04:35:51;101866.50;;;15.68;56.95
15314;BME280;7757;52.626;4.746;2022-12-05T04:38:22;101860.31;;;15.68;58.01
15314;BME280;7757;52.626;4.746;2022-12-05T04:40:54;101856.75;;;15.67;57.52
15314;BME280;7757;52.626;4.746;2022-12-05T04:43:23;101863.81;;;15.68;57.21
15314;BME280;7757;52.626;4.746;2022-12-05T04:45:52;101855.53;;;15.70;56.93
15314;BME280;7757;52.626;4.746;2022-12-05T04:48:24;101851.38;;;15.67;57.42
15314;BME280;7757;52.626;4.746;2022-12-05T04:50:54;101855.09;;;15.66;57.47
15314;BME280;7757;52.626;4.746;2022-12-05T04:53:24;101859.47;;;15.67;57.23
15314;BME280;7757;52.626;4.746;2022-12-05T04:55:54;101859.47;;;15.67;56.96
15314;BME280;7757;52.626;4.746;2022-12-05T04:58:24;101862.16;;;15.67;57.41
15314;BME280;7757;52.626;4.746;2022-12-05T05:00:55;101865.47;;;15.69;57.06
15314;BME280;7757;52.626;4.746;2022-12-05T05:03:29;101863.81;;;15.68;57.26
15314;BME280;7757;52.626;4.746;2022-12-05T05:05:57;101868.19;;;15.69;57.27
15314;BME280;7757;52.626;4.746;2022-12-05T05:08:25;101863.81;;;15.68;57.00
15314;BME280;7757;52.626;4.746;2022-12-05T05:11:07;101865.47;;;15.69;57.50
15314;BME280;7757;52.626;4.746;2022-12-05T05:13:36;101860.09;;;15.69;57.85
15314;BME280;7757;52.626;4.746;2022-12-05T05:16:04;101860.72;;;15.71;57.11
15314;BME280;7757;52.626;4.746;2022-12-05T05:18:32;101856.75;;;15.67;56.77
15314;BME280;7757;52.626;4.746;2022-12-05T05:20:58;101867.56;;;15.67;57.71
15314;BME280;7757;52.626;4.746;2022-12-05T05:23:25;101862.34;;;15.66;57.20
15314;BME280;7757;52.626;4.746;2022-12-05T05:25:52;101863.81;;;15.68;56.65
15314;BME280;7757;52.626;4.746;2022-12-05T05:28:19;101859.47;;;15.67;56.69
15314;BME280;7757;52.626;4.746;2022-12-05T05:30:45;101862.16;;;15.67;56.91
15314;BME280;7757;52.626;4.746;2022-12-05T05:33:12;101870.88;;;15.69;57.05
15314;BME280;7757;52.626;4.746;2022-12-05T05:35:40;101860.31;;;15.68;56.89
15314;BME280;7757;52.626;4.746;2022-12-05T05:38:07;101871.09;;;15.68;57.39
15314;BME280;7757;52.626;4.746;2022-12-05T05:40:34;101866.72;;;15.67;57.40
15314;BME280;7757;52.626;4.746;2022-12-05T05:43:00;101864.84;;;15.67;57.36
15314;BME280;7757;52.626;4.746;2022-12-05T05:45:27;101860.31;;;15.68;56.96
15314;BME280;7757;52.626;4.746;2022-12-05T05:47:54;101860.31;;;15.68;57.21
15314;BME280;7757;52.626;4.746;2022-12-05T05:50:20;101864.19;;;15.65;56.99
15314;BME280;7757;52.626;4.746;2022-12-05T05:52:51;101855.91;;;15.67;57.36
15314;BME280;7757;52.626;4.746;2022-12-05T05:55:17;101859.25;;;15.69;56.97
15314;BME280;7757;52.626;4.746;2022-12-05T05:57:44;101862.16;;;15.67;57.47
15314;BME280;7757;52.626;4.746;2022-12-05T06:00:12;101854.09;;;15.74;57.08
15314;BME280;7757;52.626;4.746;2022-12-05T06:02:39;101864.25;;;15.72;56.95
15314;BME280;7757;52.626;4.746;2022-12-05T06:05:06;101863.25;;;15.73;57.28
15314;BME280;7757;52.626;4.746;2022-12-05T06:07:33;101862.56;;;15.71;57.01
15314;BME280;7757;52.626;4.746;2022-12-05T06:10:01;101863.03;;;15.74;57.36
15314;BME280;7757;52.626;4.746;2022-12-05T06:12:28;101866.56;;;15.75;57.07
15314;BME280;7757;52.626;4.746;2022-12-05T06:14:54;101866.81;;;15.80;57.53
15314;BME280;7757;52.626;4.746;2022-12-05T06:17:21;101859.56;;;15.80;57.26
15314;BME280;7757;52.626;4.746;2022-12-05T06:19:47;101867.84;;;15.79;57.19
15314;BME280;7757;52.626;4.746;2022-12-05T06:22:14;101862.91;;;15.82;56.96
15314;BME280;7757;52.626;4.746;2022-12-05T06:24:40;101869.13;;;15.83;57.48
15314;BME280;7757;52.626;4.746;2022-12-05T06:27:09;101868.09;;;15.84;57.26
15314;BME280;7757;52.626;4.746;2022-12-05T06:29:35;101860.84;;;15.84;57.15
15314;BME280;7757;52.626;4.746;2022-12-05T06:32:02;101868.72;;;15.86;56.92
15314;BME280;7757;52.626;4.746;2022-12-05T06:34:29;101869.56;;;15.86;57.72
15314;BME280;7757;52.626;4.746;2022-12-05T06:36:57;101862.13;;;15.88;57.50
15314;BME280;7757;52.626;4.746;2022-12-05T06:39:24;101869.19;;;15.89;57.36
15314;BME280;7757;52.626;4.746;2022-12-05T06:41:50;101866.31;;;15.91;57.63
15314;BME280;7757;52.626;4.746;2022-12-05T06:44:18;101871.31;;;15.94;57.60
15314;BME280;7757;52.626;4.746;2022-12-05T06:46:46;101865.00;;;15.87;57.46
15314;BME280;7757;52.626;4.746;2022-12-05T06:49:12;101862.56;;;15.92;57.31
15314;BME280;7757;52.626;4.746;2022-12-05T06:51:39;101870.25;;;15.95;58.06
15314;BME280;7757;52.626;4.746;2022-12-05T06:54:06;101865.47;;;15.90;57.93
15314;BME280;7757;52.626;4.746;2022-12-05T06:56:32;101865.25;;;15.92;57.37
15314;BME280;7757;52.626;4.746;2022-12-05T06:58:59;101871.69;;;15.91;57.03
15314;BME280;7757;52.626;4.746;2022-12-05T07:01:27;101874.19;;;15.92;57.10
15314;BME280;7757;52.626;4.746;2022-12-05T07:04:13;101878.56;;;15.93;57.59
15314;BME280;7757;52.626;4.746;2022-12-05T07:06:41;101877.91;;;15.91;57.70
15314;BME280;7757;52.626;4.746;2022-12-05T07:09:08;101881.44;;;15.92;58.14
15314;BME280;7757;52.626;4.746;2022-12-05T07:11:35;101882.50;;;15.91;57.19
15314;BME280;7757;52.626;4.746;2022-12-05T07:14:02;101885.59;;;15.94;57.83
15314;BME280;7757;52.626;4.746;2022-12-05T07:16:31;101883.34;;;15.98;57.35
15314;BME280;7757;52.626;4.746;2022-12-05T07:18:57;101895.00;;;15.98;58.18
15314;BME280;7757;52.626;4.746;2022-12-05T07:21:24;101886.06;;;15.98;57.78
15314;BME280;7757;52.626;4.746;2022-12-05T07:23:51;101891.28;;;15.99;57.41
15314;BME280;7757;52.626;4.746;2022-12-05T07:26:18;101889.59;;;15.98;57.83
15314;BME280;7757;52.626;4.746;2022-12-05T07:28:46;101902.91;;;16.00;57.72
15314;BME280;7757;52.626;4.746;2022-12-05T07:31:15;101897.13;;;16.03;57.17
15314;BME280;7757;52.626;4.746;2022-12-05T07:33:44;101892.69;;;16.23;58.00
15314;BME280;7757;52.626;4.746;2022-12-05T07:36:13;101894.09;;;16.47;57.65
15314;BME280;7757;52.626;4.746;2022-12-05T07:38:41;101889.63;;;16.60;57.64
15314;BME280;7757;52.626;4.746;2022-12-05T07:41:10;101891.56;;;16.73;57.56
15314;BME280;7757;52.626;4.746;2022-12-05T07:43:36;101892.22;;;16.82;58.12
15314;BME280;7757;52.626;4.746;2022-12-05T07:46:05;101891.06;;;16.97;58.28
15314;BME280;7757;52.626;4.746;2022-12-05T07:48:32;101902.72;;;17.04;58.15
15314;BME280;7757;52.626;4.746;2022-12-05T07:51:01;101898.59;;;17.21;57.39
15314;BME280;7757;52.626;4.746;2022-12-05T07:53:29;101908.84;;;17.39;56.94
15314;BME280;7757;52.626;4.746;2022-12-05T07:55:57;101914.34;;;17.59;56.97
15314;BME280;7757;52.626;4.746;2022-12-05T07:58:25;101910.00;;;17.71;56.42
15314;BME280;7757;52.626;4.746;2022-12-05T08:00:52;101908.13;;;17.84;56.29
15314;BME280;7757;52.626;4.746;2022-12-05T08:03:18;101905.84;;;17.95;55.59
15314;BME280;7757;52.626;4.746;2022-12-05T08:05:45;101907.91;;;18.06;56.33
15314;BME280;7757;52.626;4.746;2022-12-05T08:08:13;101914.78;;;18.15;56.03
15314;BME280;7757;52.626;4.746;2022-12-05T08:10:40;101921.44;;;18.45;55.03
15314;BME280;7757;52.626;4.746;2022-12-05T08:13:06;101913.50;;;18.44;55.41
15314;BME280;7757;52.626;4.746;2022-12-05T08:15:33;101920.16;;;18.48;54.97
15314;BME280;7757;52.626;4.746;2022-12-05T08:18:00;101918.63;;;18.78;54.44
15314;BME280;7757;52.626;4.746;2022-12-05T08:20:27;101910.81;;;18.57;54.98
15314;BME280;7757;52.626;4.746;2022-12-05T08:22:54;101921.19;;;18.66;54.70
15314;BME280;7757;52.626;4.746;2022-12-05T08:25:22;101926.81;;;18.71;54.78
15314;BME280;7757;52.626;4.746;2022-12-05T08:27:49;101923.03;;;18.79;54.67
15314;BME280;7757;52.626;4.746;2022-12-05T08:30:16;101926.34;;;18.87;54.51
15314;BME280;7757;52.626;4.746;2022-12-05T08:32:42;101936.97;;;18.89;54.48
15314;BME280;7757;52.626;4.746;2022-12-05T08:35:09;101927.50;;;19.05;53.93
15314;BME280;7757;52.626;4.746;2022-12-05T08:37:36;101939.59;;;19.15;53.92
15314;BME280;7757;52.626;4.746;2022-12-05T08:40:03;101939.91;;;19.32;53.63
15314;BME280;7757;52.626;4.746;2022-12-05T08:42:31;101941.72;;;19.51;53.07
15314;BME280;7757;52.626;4.746;2022-12-05T08:44:58;101943.38;;;19.52;52.91
15314;BME280;7757;52.626;4.746;2022-12-05T08:47:24;101942.44;;;19.71;52.46
15314;BME280;7757;52.626;4.746;2022-12-05T08:49:51;101944.34;;;19.64;52.86
15314;BME280;7757;52.626;4.746;2022-12-05T08:52:18;101936.84;;;19.66;52.50
15314;BME280;7757;52.626;4.746;2022-12-05T08:54:46;101942.31;;;19.60;52.30
15314;BME280;7757;52.626;4.746;2022-12-05T08:57:12;101941.16;;;19.42;52.22
15314;BME280;7757;52.626;4.746;2022-12-05T08:59:40;101944.50;;;19.31;52.04
15314;BME280;7757;52.626;4.746;2022-12-05T09:02:07;101948.88;;;19.45;52.60
15314;BME280;7757;52.626;4.746;2022-12-05T09:04:34;101945.47;;;19.50;52.44
15314;BME280;7757;52.626;4.746;2022-12-05T09:13:46;101950.75;;;19.45;52.90
15314;BME280;7757;52.626;4.746;2022-12-05T09:16:16;101952.78;;;19.49;53.15
15314;BME280;7757;52.626;4.746;2022-12-05T09:18:43;101956.09;;;19.52;53.29
15314;BME280;7757;52.626;4.746;2022-12-05T09:21:13;101963.00;;;19.54;53.27
15314;BME280;7757;52.626;4.746;2022-12-05T09:23:40;101956.75;;;19.54;53.61
15314;BME280;7757;52.626;4.746;2022-12-05T09:26:09;101955.03;;;19.59;53.15
15314;BME280;7757;52.626;4.746;2022-12-05T09:28:36;101960.22;;;19.61;53.31
15314;BME280;7757;52.626;4.746;2022-12-05T09:31:05;101954.81;;;19.61;54.02
15314;BME280;7757;52.626;4.746;2022-12-05T09:33:35;101963.78;;;19.61;53.45
15314;BME280;7757;52.626;4.746;2022-12-05T09:36:02;101965.84;;;19.66;53.60
15314;BME280;7757;52.626;4.746;2022-12-05T09:38:29;101971.72;;;19.63;53.67
15314;BME280;7757;52.626;4.746;2022-12-05T09:41:05;101967.50;;;19.67;53.70
15314;BME280;7757;52.626;4.746;2022-12-05T09:43:42;101971.22;;;19.72;53.28
15314;BME280;7757;52.626;4.746;2022-12-05T09:46:17;101968.91;;;19.76;53.24
15314;BME280;7757;52.626;4.746;2022-12-05T09:48:47;101976.88;;;19.71;53.26
15314;BME280;7757;52.626;4.746;2022-12-05T09:51:15;101974.03;;;19.59;52.47
15314;BME280;7757;52.626;4.746;2022-12-05T09:53:42;101969.69;;;19.52;52.16
15314;BME280;7757;52.626;4.746;2022-12-05T09:56:24;101974.72;;;19.48;51.71
15314;BME280;7757;52.626;4.746;2022-12-05T09:58:53;101977.63;;;19.46;51.09
15314;BME280;7757;52.626;4.746;2022-12-05T10:01:25;101969.09;;;19.43;51.84
15314;BME280;7757;52.626;4.746;2022-12-05T10:04:04;101976.44;;;19.29;51.79
15314;BME280;7757;52.626;4.746;2022-12-05T10:06:38;101969.09;;;19.43;51.65
15314;BME280;7757;52.626;4.746;2022-12-05T10:09:18;101968.81;;;19.58;51.86
15314;BME280;7757;52.626;4.746;2022-12-05T10:11:54;101964.41;;;19.63;51.97
15314;BME280;7757;52.626;4.746;2022-12-05T10:14:31;101954.38;;;19.64;51.94
15314;BME280;7757;52.626;4.746;2022-12-05T10:17:10;101957.47;;;19.67;52.13
15314;BME280;7757;52.626;4.746;2022-12-05T10:19:45;101957.44;;;19.74;52.13
15314;BME280;7757;52.626;4.746;2022-12-05T10:22:15;101961.84;;;19.75;52.32
15314;BME280;7757;52.626;4.746;2022-12-05T10:24:46;101950.16;;;19.74;52.37
15314;BME280;7757;52.626;4.746;2022-12-05T10:27:18;101961.41;;;19.78;51.99
15314;BME280;7757;52.626;4.746;2022-12-05T10:29:51;101963.25;;;19.84;52.25
15314;BME280;7757;52.626;4.746;2022-12-05T10:32:23;101956.56;;;19.80;52.08
15314;BME280;7757;52.626;4.746;2022-12-05T10:34:59;101956.13;;;19.83;52.57
15314;BME280;7757;52.626;4.746;2022-12-05T10:37:27;101956.78;;;19.78;52.48
15314;BME280;7757;52.626;4.746;2022-12-05T10:39:55;101949.66;;;19.84;52.43
15314;BME280;7757;52.626;4.746;2022-12-05T10:42:27;101956.09;;;19.89;52.39
15314;BME280;7757;52.626;4.746;2022-12-05T10:44:57;101955.25;;;19.89;52.71
15314;BME280;7757;52.626;4.746;2022-12-05T10:47:25;101958.56;;;19.91;52.46
15314;BME280;7757;52.626;4.746;2022-12-05T10:49:55;101960.44;;;19.90;52.89
15314;BME280;7757;52.626;4.746;2022-12-05T10:52:23;101952.53;;;19.89;52.36
15314;BME280;7757;52.626;4.746;2022-12-05T10:54:55;101956.69;;;19.91;52.64
15314;BME280;7757;52.626;4.746;2022-12-05T10:57:24;101955.81;;;19.97;52.36
15314;BME280;7757;52.626;4.746;2022-12-05T10:59:51;101961.66;;;20.01;52.17
15314;BME280;7757;52.626;4.746;2022-12-05T11:02:23;101960.66;;;19.95;52.01
15314;BME280;7757;52.626;4.746;2022-12-05T11:04:51;101954.94;;;20.03;52.18
15314;BME280;7757;52.626;4.746;2022-12-05T11:07:30;101953.94;;;19.98;52.07
15314;BME280;7757;52.626;4.746;2022-12-05T11:09:59;101956.28;;;19.63;52.08
15314;BME280;7757;52.626;4.746;2022-12-05T11:12:27;101951.22;;;19.22;51.68
15314;BME280;7757;52.626;4.746;2022-12-05T11:14:58;101943.59;;;19.06;52.18
15314;BME280;7757;52.626;4.746;2022-12-05T11:17:29;101952.19;;;18.90;52.40
15314;BME280;7757;52.626;4.746;2022-12-05T11:19:56;101948.25;;;18.79;52.37
15314;BME280;7757;52.626;4.746;2022-12-05T11:22:31;101955.78;;;18.71;52.75
15314;BME280;7757;52.626;4.746;2022-12-05T11:24:58;101959.13;;;18.66;52.81
15314;BME280;7757;52.626;4.746;2022-12-05T11:27:27;101966.63;;;18.58;53.08
15314;BME280;7757;52.626;4.746;2022-12-05T11:29:57;101955.00;;;18.51;52.96
15314;BME280;7757;52.626;4.746;2022-12-05T11:32:26;101957.69;;;18.44;53.41
15314;BME280;7757;52.626;4.746;2022-12-05T11:35:00;101953.53;;;18.42;53.31
15314;BME280;7757;52.626;4.746;2022-12-05T11:37:32;101958.31;;;18.33;53.71
15314;BME280;7757;52.626;4.746;2022-12-05T11:40:01;101956.84;;;18.30;53.49
15314;BME280;7757;52.626;4.746;2022-12-05T11:42:37;101955.81;;;18.45;53.95
15314;BME280;7757;52.626;4.746;2022-12-05T11:45:16;101953.03;;;18.84;53.34
15314;BME280;7757;52.626;4.746;2022-12-05T11:48:02;101952.16;;;19.03;53.15
15314;BME280;7757;52.626;4.746;2022-12-05T11:50:40;101957.72;;;19.15;52.82
15314;BME280;7757;52.626;4.746;2022-12-05T11:53:35;101956.69;;;19.16;52.91
15314;BME280;7757;52.626;4.746;2022-12-05T11:56:14;101956.88;;;19.21;53.25
15314;BME280;7757;52.626;4.746;2022-12-05T11:58:56;101955.41;;;19.25;53.12
15314;BME280;7757;52.626;4.746;2022-12-05T12:01:33;101961.22;;;19.28;53.34
15314;BME280;7757;52.626;4.746;2022-12-05T12:07:11;101952.00;;;19.42;53.67
15314;BME280;7757;52.626;4.746;2022-12-05T12:09:50;101950.75;;;19.45;53.23
15314;BME280;7757;52.626;4.746;2022-12-05T12:12:24;101956.78;;;19.47;53.43
15314;BME280;7757;52.626;4.746;2022-12-05T12:14:58;101949.63;;;19.53;53.30
15314;BME280;7757;52.626;4.746;2022-12-05T12:17:33;101960.47;;;19.59;53.46
15314;BME280;7757;52.626;4.746;2022-12-05T12:20:20;101949.78;;;19.64;53.62
15314;BME280;7757;52.626;4.746;2022-12-05T12:23:01;101943.72;;;19.69;52.87
15314;BME280;7757;52.626;4.746;2022-12-05T12:25:39;101946.78;;;19.72;52.88
15314;BME280;7757;52.626;4.746;2022-12-05T12:28:20;101951.97;;;19.80;52.50
15314;BME280;7757;52.626;4.746;2022-12-05T12:31:02;101953.41;;;19.83;53.03
15314;BME280;7757;52.626;4.746;2022-12-05T12:33:33;101949.44;;;19.85;53.03
15314;BME280;7757;52.626;4.746;2022-12-05T12:36:11;101958.63;;;19.84;52.93
15314;BME280;7757;52.626;4.746;2022-12-05T12:39:08;101952.72;;;19.94;52.75
15314;BME280;7757;52.626;4.746;2022-12-05T12:42:04;101945.16;;;19.96;52.88
15314;BME280;7757;52.626;4.746;2022-12-05T12:45:13;101956.81;;;20.03;53.03
15314;BME280;7757;52.626;4.746;2022-12-05T12:47:52;101947.38;;;20.05;52.95
15314;BME280;7757;52.626;4.746;2022-12-05T12:50:27;101952.78;;;20.12;52.79
15314;BME280;7757;52.626;4.746;2022-12-05T12:53:12;101941.91;;;20.12;52.79
15314;BME280;7757;52.626;4.746;2022-12-05T12:55:54;101942.91;;;20.18;52.97
15314;BME280;7757;52.626;4.746;2022-12-05T12:58:39;101937.22;;;20.26;52.66
15314;BME280;7757;52.626;4.746;2022-12-05T13:01:15;101932.56;;;20.33;52.17
15314;BME280;7757;52.626;4.746;2022-12-05T13:03:51;101937.84;;;20.28;51.83
15314;BME280;7757;52.626;4.746;2022-12-05T13:06:25;101934.84;;;20.36;52.36
15314;BME280;7757;52.626;4.746;2022-12-05T13:08:56;101933.50;;;20.45;52.10
15314;BME280;7757;52.626;4.746;2022-12-05T13:11:28;101939.38;;;20.42;53.10
15314;BME280;7757;52.626;4.746;2022-12-05T13:14:01;101936.31;;;20.56;52.72
15314;BME280;7757;52.626;4.746;2022-12-05T13:16:32;101936.31;;;20.56;52.82
15314;BME280;7757;52.626;4.746;2022-12-05T13:19:00;101936.00;;;20.65;53.21
15314;BME280;7757;52.626;4.746;2022-12-05T13:21:28;101930.19;;;20.61;52.79
15314;BME280;7757;52.626;4.746;2022-12-05T13:23:56;101925.91;;;20.72;52.41
15314;BME280;7757;52.626;4.746;2022-12-05T13:26:28;101915.75;;;20.79;52.47
15314;BME280;7757;52.626;4.746;2022-12-05T13:28:57;101911.59;;;20.76;52.59